Time;durP1;ratioP1;P1;durP2;ratioP2;P2;SDS_P1;SDS_P2;PMS_P1;PMS_P2;Temp;Humidity;BMP_temperature;BMP_pressure;BME280_temperature;BME280_humidity;BME280_pressure;Samples;Min_cycle;Max_cycle;Signal;HPM_P1;HPM_P2
2021/09/30 00:01:33;;;;;;;11.85;7.78;;;8.40;93.70;;;;;;5075032;28;20029;-87
2021/09/30 00:03:59;;;;;;;11.93;7.57;;;8.40;93.70;;;;;;5075520;28;20032;-88
2021/09/30 00:06:26;;;;;;;12.25;7.25;;;8.40;93.70;;;;;;5074693;28;20036;-86
2021/09/30 00:08:52;;;;;;;10.80;6.78;;;8.40;93.70;;;;;;5076560;28;20037;-86
2021/09/30 00:11:23;;;;;;;11.18;7.25;;;8.50;93.60;;;;;;5074707;28;20059;-86
2021/09/30 00:13:54;;;;;;;9.95;6.63;;;8.50;93.60;;;;;;5075362;28;20082;-87
2021/09/30 00:35:04;;;;;;;8.73;5.57;;;8.70;93.10;;;;;;5076199;28;20085;-88
2021/09/30 00:45:44;;;;;;;11.18;6.60;;;8.80;92.80;;;;;;5075675;28;20123;-88
2021/09/30 00:48:45;;;;;;;10.20;6.03;;;8.80;92.70;;;;;;5075435;28;20024;-88
2021/09/30 00:51:18;;;;;;;8.77;5.82;;;8.80;92.70;;;;;;5075541;28;20024;-88
2021/09/30 00:55:04;;;;;;;9.50;6.20;;;8.80;92.50;;;;;;5075871;28;20024;-87
2021/09/30 02:59:26;;;;;;;5.78;3.90;;;9.40;87.10;;;;;;5045475;28;20124;-87
2021/09/30 03:01:53;;;;;;;7.25;4.03;;;9.40;87.20;;;;;;5039523;28;20048;-86
2021/09/30 03:04:20;;;;;;;5.97;4.18;;;9.40;87.30;;;;;;5039284;28;20112;-87
2021/09/30 03:06:50;;;;;;;5.93;4.30;;;9.40;87.30;;;;;;5057253;28;20056;-89
2021/09/30 03:09:19;;;;;;;6.28;4.03;;;9.40;87.80;;;;;;5039533;28;20037;-88
2021/09/30 03:11:52;;;;;;;6.35;4.50;;;9.40;87.80;;;;;;5039394;28;20128;-87
2021/09/30 03:14:20;;;;;;;6.82;4.95;;;9.40;87.70;;;;;;5023739;28;20043;-86
2021/09/30 03:16:52;;;;;;;6.47;4.70;;;9.40;87.90;;;;;;5048348;28;20040;-87
2021/09/30 03:22:14;;;;;;;6.78;4.90;;;9.40;87.80;;;;;;5077264;28;20040;-86
2021/09/30 03:24:45;;;;;;;6.18;4.82;;;9.40;87.80;;;;;;5076544;28;20035;-89
2021/09/30 03:27:11;;;;;;;7.78;5.30;;;9.40;87.90;;;;;;5076308;28;20024;-89
2021/09/30 03:29:39;;;;;;;7.97;5.00;;;9.40;88.00;;;;;;5076704;28;20068;-87
2021/09/30 03:32:06;;;;;;;6.80;4.88;;;9.40;88.50;;;;;;5077420;28;20032;-87
2021/09/30 03:34:38;;;;;;;8.13;4.97;;;9.40;88.50;;;;;;5078197;28;20020;-84
2021/09/30 03:37:05;;;;;;;7.00;4.72;;;9.40;88.40;;;;;;5076958;28;20036;-86
2021/09/30 03:39:31;;;;;;;7.03;4.93;;;9.40;88.40;;;;;;5060774;28;20040;-84
2021/09/30 03:41:58;;;;;;;7.70;5.25;;;9.40;88.40;;;;;;5059644;28;20032;-83
2021/09/30 03:44:24;;;;;;;7.63;5.00;;;9.40;88.60;;;;;;5078196;28;20029;-83
2021/09/30 03:46:52;;;;;;;7.72;5.30;;;9.30;88.60;;;;;;5075854;28;20035;-83
2021/09/30 03:49:27;;;;;;;8.13;5.10;;;9.40;88.80;;;;;;5075404;28;20067;-86
2021/09/30 03:52:16;;;;;;;7.78;5.07;;;9.30;88.90;;;;;;5076619;28;20116;-86
2021/09/30 03:57:49;;;;;;;6.63;4.90;;;9.40;89.20;;;;;;5076860;28;20055;-88
2021/09/30 04:00:15;;;;;;;8.02;5.85;;;9.30;89.20;;;;;;5075645;28;20035;-89
2021/09/30 04:02:42;;;;;;;8.68;5.90;;;9.30;89.30;;;;;;5074990;28;20024;-90
2021/09/30 04:05:08;;;;;;;8.60;5.80;;;9.30;89.60;;;;;;5075832;28;20032;-91
2021/09/30 04:07:37;;;;;;;7.50;5.65;;;9.30;89.70;;;;;;5075252;28;20067;-92
2021/09/30 04:10:04;;;;;;;8.75;6.25;;;9.40;89.30;;;;;;5059593;28;20060;-86
2021/09/30 04:12:31;;;;;;;8.10;6.13;;;9.40;88.60;;;;;;5077090;28;20036;-91
2021/09/30 04:14:56;;;;;;;7.50;5.65;;;9.40;87.80;;;;;;5076427;28;20115;-89
2021/09/30 04:17:22;;;;;;;7.43;5.85;;;9.50;87.30;;;;;;5076460;28;20049;-88
2021/09/30 04:19:50;;;;;;;7.78;5.30;;;9.50;86.50;;;;;;5074836;28;20457;-86
2021/09/30 04:22:16;;;;;;;6.97;5.55;;;9.60;86.40;;;;;;5076360;28;20054;-90
2021/09/30 04:24:44;;;;;;;7.35;5.65;;;9.60;86.00;;;;;;5076950;28;20388;-89
2021/09/30 04:27:10;;;;;;;6.53;4.97;;;9.60;85.40;;;;;;5076301;28;20020;-90
2021/09/30 04:29:36;;;;;;;7.68;5.30;;;9.70;85.30;;;;;;5075523;28;20490;-88
2021/09/30 04:32:05;;;;;;;6.18;5.00;;;9.70;85.10;;;;;;5076542;28;20036;-89
2021/09/30 04:34:32;;;;;;;6.78;5.35;;;9.70;84.70;;;;;;5075741;28;20032;-89
2021/09/30 04:36:58;;;;;;;8.48;5.20;;;9.80;84.60;;;;;;5074961;28;20089;-88
2021/09/30 04:39:26;;;;;;;8.57;5.70;;;9.80;84.40;;;;;;5077546;28;20039;-89
2021/09/30 04:41:53;;;;;;;8.45;5.60;;;9.80;84.10;;;;;;5075129;28;20040;-90
2021/09/30 04:44:20;;;;;;;8.30;5.57;;;9.80;84.00;;;;;;5074850;28;20037;-92
2021/09/30 04:46:46;;;;;;;7.20;5.00;;;9.90;84.00;;;;;;5076471;28;20032;-90
2021/09/30 04:49:12;;;;;;;6.95;4.95;;;9.90;83.90;;;;;;5075688;28;20066;-88
2021/09/30 04:51:38;;;;;;;8.25;5.20;;;9.90;84.00;;;;;;5076314;28;20113;-89
2021/09/30 04:54:04;;;;;;;9.57;5.88;;;9.90;83.70;;;;;;5079478;28;20169;-89
2021/09/30 04:56:29;;;;;;;8.52;5.78;;;9.90;83.50;;;;;;5092497;28;20029;-90
2021/09/30 04:58:55;;;;;;;7.40;5.63;;;9.90;83.50;;;;;;5094435;28;20045;-89
2021/09/30 05:01:21;;;;;;;8.80;6.05;;;9.90;83.30;;;;;;5096008;28;20028;-89
2021/09/30 05:03:47;;;;;;;8.05;5.53;;;9.90;83.30;;;;;;5098741;28;20021;-89
2021/09/30 05:06:13;;;;;;;6.85;5.00;;;10.00;83.50;;;;;;5098746;28;20032;-86
2021/09/30 05:08:48;;;;;;;8.25;6.15;;;10.00;83.40;;;;;;5096745;28;20044;-90
2021/09/30 05:12:03;;;;;;;10.45;6.20;;;10.00;82.90;;;;;;5092893;28;20035;-86
2021/09/30 05:14:29;;;;;;;9.05;6.05;;;10.10;82.40;;;;;;5037475;28;20052;-86
2021/09/30 05:16:55;;;;;;;10.27;6.20;;;10.10;82.70;;;;;;5037821;28;20037;-89
2021/09/30 05:19:21;;;;;;;8.52;5.97;;;10.00;82.40;;;;;;5066930;28;20016;-88
2021/09/30 05:21:47;;;;;;;8.38;5.53;;;10.10;82.50;;;;;;5081905;28;20031;-88
2021/09/30 05:24:13;;;;;;;10.32;5.95;;;10.20;82.60;;;;;;5080669;28;20017;-90
2021/09/30 05:26:38;;;;;;;8.02;5.68;;;10.30;82.40;;;;;;5085759;28;20464;-89
2021/09/30 05:29:06;;;;;;;7.57;5.47;;;10.30;82.10;;;;;;5067629;28;20036;-88
2021/09/30 05:31:32;;;;;;;7.50;5.80;;;10.40;82.00;;;;;;5083186;28;20032;-89
2021/09/30 05:33:58;;;;;;;7.13;5.38;;;10.50;81.60;;;;;;5080133;28;20037;-88
2021/09/30 05:36:24;;;;;;;7.57;5.38;;;10.60;81.20;;;;;;5061321;28;20115;-89
2021/09/30 05:38:51;;;;;;;7.97;5.00;;;10.80;81.10;;;;;;5063617;28;20044;-88
2021/09/30 05:41:17;;;;;;;9.25;5.32;;;10.90;80.40;;;;;;5059918;28;20367;-89
2021/09/30 05:43:50;;;;;;;7.80;5.82;;;11.00;79.90;;;;;;5059734;28;20029;-89
2021/09/30 05:46:18;;;;;;;6.53;4.82;;;11.10;79.20;;;;;;5057720;28;20398;-89
2021/09/30 05:48:43;;;;;;;20.15;12.50;;;11.10;78.70;;;;;;5057045;28;20466;-89
2021/09/30 05:51:09;;;;;;;14.68;10.43;;;11.10;78.30;;;;;;5074678;28;20025;-85
2021/09/30 05:53:35;;;;;;;11.65;8.10;;;11.20;77.70;;;;;;5056317;28;20055;-85
2021/09/30 05:56:01;;;;;;;10.57;6.68;;;11.20;77.50;;;;;;5074423;28;20031;-88
2021/09/30 05:58:29;;;;;;;9.30;5.65;;;11.20;77.10;;;;;;5056467;28;20436;-87
2021/09/30 06:01:11;;;;;;;6.45;4.80;;;11.10;77.20;;;;;;5056389;28;20035;-87
2021/09/30 06:09:28;;;;;;;6.78;4.60;;;11.00;77.30;;;;;;5074162;28;20047;-86
2021/09/30 06:14:28;;;;;;;6.72;4.10;;;11.00;77.60;;;;;;5074429;28;20063;-88
2021/09/30 06:16:55;;;;;;;4.95;3.58;;;11.00;77.50;;;;;;5074839;28;20041;-89
2021/09/30 06:19:21;;;;;;;6.43;3.90;;;11.10;77.50;;;;;;5075021;28;20036;-91
2021/09/30 06:21:52;;;;;;;71.07;50.97;;;11.10;77.00;;;;;;5075834;28;20032;-93
2021/09/30 06:24:19;;;;;;;62.78;43.70;;;11.20;76.70;;;;;;5075763;28;20479;-94
2021/09/30 06:26:46;;;;;;;52.67;34.65;;;11.30;76.70;;;;;;5072856;28;20028;-89
2021/09/30 06:29:12;;;;;;;34.15;22.58;;;11.40;76.70;;;;;;5073015;28;20066;-90
2021/09/30 06:31:38;;;;;;;23.13;15.95;;;11.60;76.50;;;;;;5074281;28;20455;-88
2021/09/30 06:34:04;;;;;;;17.70;11.82;;;11.70;76.10;;;;;;5072870;28;20470;-88
2021/09/30 06:36:30;;;;;;;11.02;8.70;;;11.80;75.80;;;;;;5074351;28;20033;-88
2021/09/30 06:38:56;;;;;;;8.80;6.68;;;11.90;75.20;;;;;;5072414;28;20039;-88
2021/09/30 06:41:22;;;;;;;7.47;5.57;;;11.90;74.80;;;;;;5074045;28;20375;-86
2021/09/30 06:43:48;;;;;;;8.63;5.35;;;11.90;74.40;;;;;;5072540;28;20051;-86
2021/09/30 06:46:14;;;;;;;6.20;4.45;;;12.00;74.10;;;;;;5072587;28;20386;-88
2021/09/30 06:48:39;;;;;;;6.05;4.45;;;12.00;73.90;;;;;;5071460;28;20490;-86
2021/09/30 06:51:05;;;;;;;6.68;4.30;;;12.10;74.10;;;;;;5072772;28;20115;-87
2021/09/30 06:53:31;;;;;;;5.93;3.95;;;12.20;73.50;;;;;;5074194;28;20025;-87
2021/09/30 06:56:08;;;;;;;6.07;3.95;;;12.30;73.10;;;;;;5073323;28;20095;-87
2021/09/30 06:58:43;;;;;;;6.55;4.28;;;12.30;72.80;;;;;;5072955;28;20043;-86
2021/09/30 07:01:10;;;;;;;5.00;3.47;;;12.30;72.30;;;;;;5072910;28;20072;-87
2021/09/30 07:03:36;;;;;;;7.07;3.90;;;12.40;72.50;;;;;;5073526;28;20059;-85
2021/09/30 07:06:02;;;;;;;5.47;3.80;;;12.50;72.40;;;;;;5072167;28;20064;-85
2021/09/30 07:08:29;;;;;;;6.32;4.50;;;12.70;71.60;;;;;;5072146;28;20072;-85
2021/09/30 07:10:55;;;;;;;8.73;6.00;;;12.80;71.50;;;;;;5072098;28;20115;-85
2021/09/30 07:13:21;;;;;;;8.32;5.53;;;12.90;71.40;;;;;;5073142;28;20109;-85
2021/09/30 07:15:48;;;;;;;11.40;6.72;;;13.00;71.50;;;;;;5073699;28;20029;-85
2021/09/30 07:18:19;;;;;;;8.15;5.70;;;13.10;71.00;;;;;;5075616;28;20040;-85
2021/09/30 07:20:50;;;;;;;8.43;5.50;;;13.30;70.70;;;;;;5075772;28;20082;-86
2021/09/30 07:23:16;;;;;;;7.78;5.00;;;13.50;70.60;;;;;;5075552;28;20024;-85
2021/09/30 07:25:42;;;;;;;6.10;4.40;;;13.70;69.20;;;;;;5075190;28;20115;-86
2021/09/30 07:28:08;;;;;;;5.32;3.90;;;13.90;69.30;;;;;;5076986;28;20036;-87
2021/09/30 07:30:34;;;;;;;7.57;3.95;;;14.20;70.70;;;;;;5075774;28;20139;-85
2021/09/30 07:33:00;;;;;;;4.07;2.92;;;14.50;71.40;;;;;;5075602;28;20073;-85
2021/09/30 07:35:26;;;;;;;3.90;3.08;;;14.90;71.60;;;;;;5076602;28;20020;-85
2021/09/30 07:37:56;;;;;;;3.28;2.63;;;15.40;72.80;;;;;;5075268;28;20039;-85
2021/09/30 07:40:23;;;;;;;4.47;3.30;;;15.80;70.70;;;;;;5076571;28;20052;-86
2021/09/30 07:42:49;;;;;;;4.15;3.28;;;16.30;70.90;;;;;;5076203;28;20033;-86
2021/09/30 07:45:15;;;;;;;3.38;2.83;;;16.60;69.70;;;;;;5075182;28;20432;-85
2021/09/30 07:47:41;;;;;;;5.28;3.00;;;17.10;69.50;;;;;;5076538;28;20052;-86
2021/09/30 07:50:08;;;;;;;6.38;3.05;;;17.50;67.20;;;;;;5075087;28;20036;-87
2021/09/30 07:52:34;;;;;;;4.93;3.05;;;17.80;66.60;;;;;;5075091;28;20043;-86
2021/09/30 07:55:00;;;;;;;3.63;2.78;;;18.20;66.00;;;;;;5075715;28;20024;-87
2021/09/30 07:57:29;;;;;;;5.22;2.78;;;18.50;63.80;;;;;;5075972;28;20452;-86
2021/09/30 07:59:55;;;;;;;5.10;3.20;;;18.80;63.00;;;;;;5076248;28;20035;-87
2021/09/30 08:02:21;;;;;;;3.15;2.60;;;19.10;61.90;;;;;;5075086;28;20028;-86
2021/09/30 08:04:46;;;;;;;3.88;2.83;;;19.40;61.10;;;;;;5076570;28;20028;-87
2021/09/30 08:07:12;;;;;;;4.55;3.17;;;19.80;60.30;;;;;;5076020;28;20141;-87
2021/09/30 08:09:38;;;;;;;4.38;2.70;;;20.10;58.80;;;;;;5075454;28;20473;-87
2021/09/30 08:12:05;;;;;;;3.85;2.90;;;20.40;57.50;;;;;;5074864;28;20211;-87
2021/09/30 08:14:31;;;;;;;4.63;2.65;;;20.70;56.30;;;;;;5076314;28;20031;-87
2021/09/30 08:16:56;;;;;;;3.92;2.67;;;21.00;55.90;;;;;;5075960;28;20072;-87
2021/09/30 08:19:22;;;;;;;3.55;2.53;;;21.30;55.00;;;;;;5075874;28;20154;-87
2021/09/30 08:21:49;;;;;;;4.50;3.20;;;21.60;54.30;;;;;;5074394;28;20032;-87
2021/09/30 08:24:16;;;;;;;5.07;2.90;;;21.70;53.20;;;;;;5075026;28;20063;-87
2021/09/30 08:26:46;;;;;;;3.65;2.80;;;21.90;52.80;;;;;;5073908;28;20039;-87
2021/09/30 08:29:14;;;;;;;2.87;2.43;;;22.10;52.10;;;;;;5074381;28;20046;-87
2021/09/30 08:31:40;;;;;;;4.88;2.80;;;22.10;50.70;;;;;;5075596;28;20264;-87
2021/09/30 08:34:05;;;;;;;3.88;2.50;;;22.10;50.00;;;;;;5075074;28;20099;-86
2021/09/30 08:36:32;;;;;;;4.63;3.05;;;22.20;50.60;;;;;;5075271;28;20375;-86
2021/09/30 08:38:58;;;;;;;3.70;2.80;;;22.30;49.30;;;;;;5074015;28;20123;-86
2021/09/30 08:41:24;;;;;;;3.40;2.55;;;22.40;48.90;;;;;;5074053;28;20032;-86
2021/09/30 08:43:50;;;;;;;4.07;2.60;;;22.50;47.60;;;;;;5075137;28;20055;-87
2021/09/30 08:46:17;;;;;;;3.85;2.65;;;22.60;47.10;;;;;;5074135;28;20056;-87
2021/09/30 08:48:43;;;;;;;3.35;2.45;;;22.70;46.60;;;;;;5075316;28;20519;-87
2021/09/30 08:51:10;;;;;;;3.47;2.42;;;22.80;46.60;;;;;;5074156;28;20123;-87
2021/09/30 08:53:36;;;;;;;3.25;2.22;;;22.90;46.20;;;;;;5077190;28;20036;-87
2021/09/30 08:56:04;;;;;;;3.92;2.30;;;22.60;45.60;;;;;;5076260;28;20057;-87
2021/09/30 08:58:30;;;;;;;4.25;2.33;;;22.50;46.30;;;;;;5077757;28;20037;-86
2021/09/30 09:01:00;;;;;;;4.40;2.78;;;22.60;46.10;;;;;;5076061;28;20028;-87
2021/09/30 09:03:32;;;;;;;3.65;2.50;;;22.60;45.10;;;;;;5075280;28;20038;-85
2021/09/30 09:05:58;;;;;;;3.50;2.42;;;22.40;45.00;;;;;;5073549;28;20043;-86
2021/09/30 09:08:23;;;;;;;3.97;2.70;;;22.50;45.60;;;;;;5074651;28;20028;-87
2021/09/30 09:10:54;;;;;;;4.43;2.33;;;22.80;45.30;;;;;;5075445;28;20517;-86
2021/09/30 09:13:22;;;;;;;4.07;2.50;;;23.00;44.80;;;;;;5074869;28;20029;-85
2021/09/30 09:15:49;;;;;;;3.83;2.65;;;23.10;44.20;;;;;;5074670;28;20077;-85
2021/09/30 09:18:21;;;;;;;4.75;2.72;;;23.20;43.90;;;;;;5076060;28;20048;-86
2021/09/30 09:21:14;;;;;;;5.70;2.30;;;23.40;42.80;;;;;;5075555;28;20033;-85
2021/09/30 09:23:49;;;;;;;4.85;2.10;;;23.70;39.30;;;;;;5075452;28;20032;-86
2021/09/30 09:26:17;;;;;;;2.75;2.20;;;23.90;39.00;;;;;;5073348;28;20025;-86
2021/09/30 09:29:12;;;;;;;2.70;2.25;;;24.00;42.60;;;;;;5074598;28;20374;-87
2021/09/30 09:31:40;;;;;;;2.45;2.08;;;24.20;38.70;;;;;;5074327;28;20032;-86
2021/09/30 09:34:35;;;;;;;5.25;2.50;;;24.30;42.00;;;;;;5073581;28;20083;-86
2021/09/30 09:37:30;;;;;;;4.13;2.70;;;24.60;37.20;;;;;;5073763;28;20047;-86
2021/09/30 09:40:11;;;;;;;3.83;2.60;;;24.80;36.00;;;;;;5072677;28;20165;-86
2021/09/30 09:42:37;;;;;;;4.60;2.60;;;24.80;40.20;;;;;;5074613;28;20115;-87
2021/09/30 09:45:11;;;;;;;3.97;2.60;;;24.90;40.30;;;;;;5074387;28;20068;-86
2021/09/30 09:47:39;;;;;;;5.93;2.40;;;25.10;39.90;;;;;;5074800;28;20123;-86
2021/09/30 09:50:18;;;;;;;3.55;2.60;;;25.10;39.60;;;;;;5072797;28;20041;-86
2021/09/30 09:52:47;;;;;;;5.18;2.80;;;25.30;39.40;;;;;;5074325;28;20024;-87
2021/09/30 09:55:18;;;;;;;3.85;2.83;;;25.50;38.80;;;;;;5073224;28;20413;-87
2021/09/30 09:58:17;;;;;;;4.22;2.53;;;25.50;38.70;;;;;;5072901;28;20032;-87
2021/09/30 10:00:52;;;;;;;4.00;2.87;;;25.50;33.90;;;;;;5051552;28;20473;-86
2021/09/30 10:03:26;;;;;;;4.00;2.67;;;25.50;36.20;;;;;;5074291;28;20036;-87
2021/09/30 10:05:53;;;;;;;3.10;2.50;;;25.70;37.70;;;;;;5073861;28;20028;-85
2021/09/30 10:08:19;;;;;;;4.32;2.50;;;25.90;38.20;;;;;;5073821;28;20348;-86
2021/09/30 10:10:48;;;;;;;3.65;2.65;;;26.00;37.80;;;;;;5072875;28;20043;-86
2021/09/30 10:13:15;;;;;;;3.45;2.80;;;26.10;37.60;;;;;;5074303;28;20040;-86
2021/09/30 10:15:42;;;;;;;4.35;2.80;;;26.10;37.40;;;;;;5073542;28;20521;-87
2021/09/30 10:18:09;;;;;;;3.33;2.80;;;26.20;37.20;;;;;;5072311;28;20075;-86
2021/09/30 10:20:37;;;;;;;3.45;2.88;;;26.30;37.30;;;;;;5074813;28;20066;-87
2021/09/30 10:23:09;;;;;;;5.18;2.80;;;26.50;37.00;;;;;;5076478;28;20031;-87
2021/09/30 10:25:41;;;;;;;3.88;2.80;;;26.60;37.00;;;;;;5077681;28;20037;-87
2021/09/30 10:28:08;;;;;;;4.50;2.55;;;26.70;36.20;;;;;;5079125;28;20056;-86
2021/09/30 10:30:38;;;;;;;3.40;2.65;;;26.80;36.40;;;;;;5078788;28;20467;-86
2021/09/30 10:33:07;;;;;;;2.75;2.40;;;27.00;36.10;;;;;;5079672;28;20033;-86
2021/09/30 10:35:40;;;;;;;3.35;2.20;;;27.10;36.00;;;;;;5095580;28;20048;-87
2021/09/30 10:38:18;;;;;;;3.88;2.63;;;27.10;34.70;;;;;;5097431;28;20100;-86
2021/09/30 10:41:09;;;;;;;4.70;2.67;;;27.00;33.90;;;;;;5098077;28;20032;-86
2021/09/30 10:43:44;;;;;;;2.80;2.50;;;27.00;33.60;;;;;;5095955;28;20028;-87
2021/09/30 10:46:22;;;;;;;4.10;2.80;;;26.90;35.10;;;;;;5095891;28;20036;-86
2021/09/30 10:48:50;;;;;;;5.05;3.03;;;26.90;33.20;;;;;;5082023;28;20043;-87
2021/09/30 10:51:17;;;;;;;3.83;2.60;;;26.90;35.70;;;;;;5077222;28;20046;-86
2021/09/30 10:53:45;;;;;;;5.63;2.95;;;27.00;35.50;;;;;;5077606;28;20054;-87
2021/09/30 10:56:30;;;;;;;3.25;2.80;;;27.30;35.10;;;;;;5078027;28;20106;-87
2021/09/30 10:59:21;;;;;;;3.97;2.75;;;27.40;32.10;;;;;;5076144;28;20467;-86
2021/09/30 11:01:47;;;;;;;3.97;2.80;;;27.50;32.10;;;;;;5077426;28;20037;-87
2021/09/30 11:04:17;;;;;;;4.18;2.60;;;27.40;35.00;;;;;;5077421;28;20036;-87
2021/09/30 11:07:13;;;;;;;3.10;2.75;;;27.70;34.80;;;;;;5076156;28;20037;-86
2021/09/30 11:09:39;;;;;;;3.63;2.83;;;27.80;32.00;;;;;;5077455;28;20047;-86
2021/09/30 11:12:13;;;;;;;5.38;2.88;;;27.70;34.20;;;;;;5075848;28;20029;-86
2021/09/30 11:14:53;;;;;;;3.85;2.72;;;27.90;33.50;;;;;;5076840;28;20127;-86
2021/09/30 11:17:39;;;;;;;5.65;3.05;;;28.00;32.50;;;;;;5077311;28;20051;-88
2021/09/30 11:20:31;;;;;;;3.35;2.70;;;28.20;31.50;;;;;;5076206;28;20066;-87
2021/09/30 11:22:57;;;;;;;4.10;2.78;;;28.20;30.90;;;;;;5076980;28;20032;-88
2021/09/30 11:26:15;;;;;;;3.70;2.90;;;28.20;33.80;;;;;;5075884;28;20028;-87
2021/09/30 11:28:41;;;;;;;4.80;2.97;;;28.30;31.00;;;;;;5043095;28;20041;-86
2021/09/30 11:31:25;;;;;;;4.30;2.80;;;28.20;33.40;;;;;;5075971;28;20081;-87
2021/09/30 11:33:56;;;;;;;2.40;2.20;;;28.10;31.40;;;;;;5075620;28;20516;-86
2021/09/30 11:36:35;;;;;;;3.90;2.40;;;28.20;33.30;;;;;;5076716;28;20123;-86
2021/09/30 11:39:03;;;;;;;4.93;2.90;;;28.10;32.50;;;;;;5075490;28;20028;-87
2021/09/30 11:41:30;;;;;;;4.85;3.45;;;28.10;33.20;;;;;;5075539;28;20059;-87
2021/09/30 11:43:56;;;;;;;4.45;2.95;;;28.20;33.10;;;;;;5075473;28;20040;-86
2021/09/30 11:46:25;;;;;;;3.60;3.00;;;28.30;33.10;;;;;;5077031;28;20021;-86
2021/09/30 11:49:02;;;;;;;4.13;2.80;;;28.30;32.90;;;;;;5075386;28;20043;-87
2021/09/30 11:51:45;;;;;;;4.95;3.20;;;28.50;32.00;;;;;;5075367;28;20032;-88
2021/09/30 11:54:18;;;;;;;4.43;3.45;;;28.70;32.00;;;;;;5074900;28;20028;-87
2021/09/30 11:57:03;;;;;;;6.03;3.13;;;28.90;32.30;;;;;;5076914;28;20028;-86
2021/09/30 11:59:31;;;;;;;5.10;3.25;;;29.00;30.00;;;;;;5076114;28;20467;-88
2021/09/30 12:02:02;;;;;;;5.72;3.30;;;28.90;32.20;;;;;;5074477;28;20032;-87
2021/09/30 12:04:42;;;;;;;5.10;3.50;;;28.90;32.60;;;;;;5075195;28;20382;-86
2021/09/30 12:07:20;;;;;;;5.07;3.08;;;29.10;32.30;;;;;;5079232;28;20085;-86
2021/09/30 12:09:48;;;;;;;4.30;2.90;;;29.20;30.10;;;;;;5076465;28;20054;-86
2021/09/30 12:12:14;;;;;;;4.85;3.05;;;29.10;31.60;;;;;;5076422;28;20032;-87
2021/09/30 12:14:46;;;;;;;3.95;2.92;;;29.00;31.90;;;;;;5075001;28;20025;-88
2021/09/30 12:17:14;;;;;;;4.53;3.10;;;29.20;31.70;;;;;;5076530;28;20039;-87
2021/09/30 12:19:43;;;;;;;4.97;3.40;;;29.20;31.70;;;;;;5074732;28;20033;-88
2021/09/30 12:22:16;;;;;;;5.05;3.40;;;29.30;31.60;;;;;;5075138;28;20029;-88
2021/09/30 12:24:46;;;;;;;4.70;3.08;;;29.50;31.20;;;;;;5076175;28;20115;-87
2021/09/30 12:27:12;;;;;;;4.22;3.03;;;29.50;31.00;;;;;;5074791;28;20028;-86
2021/09/30 12:29:40;;;;;;;5.40;3.15;;;29.30;31.30;;;;;;5076163;28;20033;-86
2021/09/30 12:32:08;;;;;;;5.25;3.10;;;29.10;31.20;;;;;;5075731;28;20115;-86
2021/09/30 12:34:34;;;;;;;5.07;3.03;;;29.10;31.00;;;;;;5075694;28;20025;-86
2021/09/30 12:37:00;;;;;;;4.88;3.13;;;28.80;31.00;;;;;;5075907;28;20413;-86
2021/09/30 12:39:31;;;;;;;4.65;2.83;;;28.80;31.10;;;;;;5075838;28;20024;-86
2021/09/30 12:42:19;;;;;;;3.70;2.88;;;28.70;31.00;;;;;;5074297;28;20036;-89
2021/09/30 12:44:49;;;;;;;3.80;2.78;;;28.60;29.90;;;;;;5075101;28;20033;-89
2021/09/30 12:47:40;;;;;;;4.32;2.60;;;28.40;31.30;;;;;;5075039;28;20032;-92
2021/09/30 12:50:10;;;;;;;5.43;3.00;;;28.30;29.60;;;;;;5076720;28;20032;-90
2021/09/30 12:52:40;;;;;;;3.92;2.80;;;28.20;31.20;;;;;;5076695;28;20036;-90
2021/09/30 12:55:15;;;;;;;;;;;28.10;30.70;;;;;;5055671;28;20033;-88
2021/09/30 12:57:40;;;;;;;4.72;2.80;;;27.70;29.50;;;;;;5051154;28;19991;-87
2021/09/30 13:00:10;;;;;;;4.65;3.47;;;27.80;31.20;;;;;;5051150;28;20061;-87
2021/09/30 13:02:36;;;;;;;;;;;27.90;31.20;;;;;;5051753;28;20056;-88
2021/09/30 13:05:01;;;;;;;7.68;4.25;;;27.80;29.50;;;;;;5050979;28;20292;-89
2021/09/30 13:07:43;;;;;;;6.35;4.88;;;27.80;31.40;;;;;;5051258;28;20036;-88
2021/09/30 13:10:09;;;;;;;6.30;3.80;;;28.00;29.80;;;;;;5049654;28;20041;-89
2021/09/30 13:12:35;;;;;;;6.03;3.95;;;28.10;31.20;;;;;;5034846;28;20025;-88
2021/09/30 13:15:01;;;;;;;6.47;4.10;;;28.30;31.10;;;;;;5050019;28;20029;-89
2021/09/30 13:17:28;;;;;;;6.53;3.40;;;28.40;31.00;;;;;;5035191;28;20048;-88
2021/09/30 13:19:56;;;;;;;4.53;2.97;;;28.50;30.90;;;;;;5051163;28;20033;-89
2021/09/30 13:22:38;;;;;;;6.07;3.10;;;28.30;30.50;;;;;;5036350;28;20040;-88
2021/09/30 13:25:07;;;;;;;4.07;2.97;;;28.20;29.90;;;;;;5050890;28;20031;-87
2021/09/30 13:27:35;;;;;;;4.20;2.63;;;28.20;30.90;;;;;;5053035;28;20026;-87
2021/09/30 13:30:04;;;;;;;4.50;2.78;;;28.30;30.60;;;;;;5050665;28;20463;-87
2021/09/30 13:32:30;;;;;;;4.93;3.15;;;28.20;30.60;;;;;;5050042;28;20171;-87
2021/09/30 13:34:57;;;;;;;5.22;3.33;;;28.20;30.60;;;;;;5050895;28;20061;-87
2021/09/30 13:37:23;;;;;;;3.72;2.80;;;28.00;31.00;;;;;;5034981;28;20116;-87
2021/09/30 13:39:49;;;;;;;4.15;3.00;;;28.00;31.10;;;;;;5034725;28;20380;-87
2021/09/30 13:42:15;;;;;;;6.22;3.42;;;28.10;30.80;;;;;;5033859;28;20025;-87
2021/09/30 13:44:40;;;;;;;4.85;3.15;;;28.00;31.10;;;;;;5050169;28;20030;-87
2021/09/30 13:47:06;;;;;;;5.78;2.90;;;28.10;31.10;;;;;;5033183;28;20036;-88
2021/09/30 13:49:36;;;;;;;4.45;3.10;;;28.10;30.90;;;;;;5034216;28;20041;-87
2021/09/30 13:52:02;;;;;;;4.63;3.03;;;27.90;30.40;;;;;;5050330;28;20041;-88
2021/09/30 13:54:28;;;;;;;4.18;2.80;;;27.80;30.70;;;;;;5050095;28;20037;-87
2021/09/30 13:56:53;;;;;;;4.78;2.70;;;27.60;30.70;;;;;;5032856;28;20087;-88
2021/09/30 13:59:25;;;;;;;3.55;2.80;;;27.40;30.80;;;;;;5034629;28;20112;-88
2021/09/30 14:01:51;;;;;;;5.55;2.78;;;27.20;31.00;;;;;;5034986;28;20065;-88
2021/09/30 14:04:17;;;;;;;4.82;2.85;;;27.10;31.00;;;;;;5049635;28;20057;-88
2021/09/30 14:06:43;;;;;;;6.80;3.25;;;27.00;31.30;;;;;;5049982;28;20030;-88
2021/09/30 14:09:09;;;;;;;6.13;4.40;;;26.90;31.10;;;;;;5035871;28;20048;-89
2021/09/30 14:11:44;;;;;;;5.45;3.53;;;26.90;31.20;;;;;;5052859;28;20034;-90
2021/09/30 14:14:10;;;;;;;4.93;3.33;;;26.90;31.00;;;;;;5035595;28;20132;-87
2021/09/30 14:16:35;;;;;;;4.47;3.13;;;26.70;30.90;;;;;;5049832;28;20053;-88
2021/09/30 14:19:01;;;;;;;7.05;3.22;;;26.50;31.30;;;;;;5050647;28;20038;-88
2021/09/30 14:21:27;;;;;;;5.70;3.35;;;26.40;32.30;;;;;;5052044;28;20033;-87
2021/09/30 14:23:52;;;;;;;5.18;2.88;;;26.30;31.90;;;;;;5036017;28;20356;-87
2021/09/30 14:26:18;;;;;;;5.20;2.95;;;26.20;31.80;;;;;;5036543;28;20033;-87
2021/09/30 14:28:44;;;;;;;5.05;2.70;;;26.20;31.90;;;;;;5037680;28;20065;-88
2021/09/30 14:31:20;;;;;;;4.45;2.55;;;26.20;31.90;;;;;;5049825;28;20045;-88
2021/09/30 14:33:46;;;;;;;4.35;2.70;;;26.20;31.50;;;;;;5034284;28;20100;-87
2021/09/30 14:36:12;;;;;;;2.78;2.47;;;26.00;31.90;;;;;;5032693;28;20060;-88
2021/09/30 14:38:38;;;;;;;3.85;3.00;;;25.90;31.90;;;;;;5049672;28;20037;-86
2021/09/30 14:41:04;;;;;;;4.80;2.63;;;25.70;32.10;;;;;;5050013;28;20379;-86
2021/09/30 14:43:35;;;;;;;5.72;3.03;;;25.50;32.10;;;;;;5051862;28;20033;-87
2021/09/30 14:46:02;;;;;;;3.72;2.80;;;25.30;32.20;;;;;;5037841;28;20391;-85
2021/09/30 14:48:28;;;;;;;4.93;2.97;;;25.00;32.30;;;;;;5055368;28;20454;-84
2021/09/30 14:50:54;;;;;;;4.53;2.83;;;24.80;32.60;;;;;;5054540;28;20065;-86
2021/09/30 14:53:22;;;;;;;5.40;2.92;;;24.40;33.00;;;;;;5038679;28;20098;-86
2021/09/30 14:55:48;;;;;;;4.10;2.85;;;24.20;33.60;;;;;;5034646;28;20028;-86
2021/09/30 14:58:14;;;;;;;3.58;2.60;;;23.80;33.60;;;;;;5049870;28;20032;-87
2021/09/30 15:00:40;;;;;;;3.70;2.80;;;23.50;33.80;;;;;;5034285;28;20033;-86
2021/09/30 15:03:06;;;;;;;3.83;2.40;;;23.10;34.20;;;;;;5050887;28;20152;-88
2021/09/30 15:05:35;;;;;;;4.05;2.70;;;22.70;34.60;;;;;;5050211;28;20030;-88
2021/09/30 15:08:02;;;;;;;4.88;2.78;;;22.30;35.20;;;;;;5049764;28;20021;-87
2021/09/30 15:10:28;;;;;;;6.15;3.00;;;21.90;35.60;;;;;;5049821;28;20476;-87
2021/09/30 15:12:54;;;;;;;4.40;3.15;;;21.40;36.20;;;;;;5049492;28;20183;-88
2021/09/30 15:15:21;;;;;;;4.40;2.90;;;20.90;36.80;;;;;;5033502;28;20061;-87
2021/09/30 15:18:50;;;;;;;8.52;3.50;;;20.30;37.70;;;;;;5034011;28;20044;-87
2021/09/30 15:23:26;;;;;;;7.43;3.63;;;18.70;40.00;;;;;;5034926;28;20054;-86
2021/09/30 15:25:51;;;;;;;7.63;3.90;;;17.90;40.20;;;;;;5033914;28;20030;-86
2021/09/30 15:28:18;;;;;;;7.85;4.35;;;17.20;42.60;;;;;;5036835;28;20026;-86
2021/09/30 15:30:45;;;;;;;7.35;4.35;;;16.70;43.70;;;;;;5053426;28;20133;-85
2021/09/30 15:33:15;;;;;;;5.88;4.07;;;16.20;44.30;;;;;;5072864;28;20048;-86
2021/09/30 15:35:42;;;;;;;8.40;4.45;;;15.80;46.10;;;;;;5072483;28;20036;-86
2021/09/30 15:38:08;;;;;;;8.07;4.35;;;15.40;46.70;;;;;;5059854;28;20026;-85
2021/09/30 15:40:34;;;;;;;7.97;4.32;;;15.00;47.60;;;;;;5060434;28;20022;-84
2021/09/30 15:43:02;;;;;;;10.15;4.15;;;14.70;49.30;;;;;;5073458;28;20084;-84
2021/09/30 15:45:28;;;;;;;9.82;4.70;;;14.40;50.30;;;;;;5059253;28;20017;-85
2021/09/30 15:47:53;;;;;;;8.52;4.18;;;14.20;50.20;;;;;;5075685;28;20021;-87